Time;durP1;ratioP1;P1;durP2;ratioP2;P2;SDS_P1;SDS_P2;PMS_P1;PMS_P2;Temp;Humidity;BMP_temperature;BMP_pressure;BME280_temperature;BME280_humidity;BME280_pressure;Samples;Min_cycle;Max_cycle;Signal;HPM_P1;HPM_P2
2023/12/07 00:01:03;;;;;;;11.32;9.85;;;1.80;99.90;;;;;;5108818;28;20035;-76
2023/12/07 00:03:29;;;;;;;11.02;8.88;;;1.90;99.90;;;;;;5124856;28;20048;-76
2023/12/07 00:05:54;;;;;;;10.82;9.13;;;1.90;99.90;;;;;;5126071;28;20066;-77
2023/12/07 00:08:20;;;;;;;10.02;9.02;;;2.20;99.90;;;;;;5124953;28;20099;-77
2023/12/07 00:10:45;;;;;;;10.15;9.02;;;1.90;99.90;;;;;;5105878;28;20495;-77
2023/12/07 00:13:11;;;;;;;10.65;9.15;;;1.90;99.90;;;;;;5106688;28;20044;-76
2023/12/07 00:15:37;;;;;;;9.55;8.65;;;1.90;99.90;;;;;;5105159;28;20047;-77
2023/12/07 00:18:03;;;;;;;10.07;9.00;;;1.90;99.90;;;;;;5106520;28;20043;-76
2023/12/07 00:20:29;;;;;;;10.35;9.25;;;1.90;99.90;;;;;;5105214;28;20290;-77
2023/12/07 00:22:55;;;;;;;10.68;8.57;;;1.90;99.90;;;;;;5104897;28;20065;-76
2023/12/07 00:25:21;;;;;;;8.65;7.82;;;1.90;99.90;;;;;;5104181;28;20488;-77
2023/12/07 00:27:48;;;;;;;9.13;8.23;;;1.90;99.90;;;;;;5106017;28;20051;-77
2023/12/07 00:30:13;;;;;;;10.45;9.00;;;1.90;99.90;;;;;;5104420;28;20059;-77
2023/12/07 00:32:43;;;;;;;10.18;8.65;;;1.90;99.90;;;;;;5105475;28;20434;-77
2023/12/07 00:35:11;;;;;;;11.57;8.90;;;2.00;99.90;;;;;;5106217;28;20080;-79
2023/12/07 00:37:37;;;;;;;11.32;8.75;;;2.00;99.90;;;;;;5104517;28;20032;-79
2023/12/07 00:40:04;;;;;;;8.85;7.95;;;2.40;99.90;;;;;;5104411;28;20072;-78
2023/12/07 00:42:30;;;;;;;10.35;8.77;;;2.00;99.90;;;;;;5105047;28;20040;-77
2023/12/07 00:44:56;;;;;;;11.48;8.80;;;2.00;99.90;;;;;;5104283;28;20058;-79
2023/12/07 00:47:22;;;;;;;10.80;9.02;;;2.00;99.90;;;;;;5104434;28;20047;-77
2023/12/07 00:49:48;;;;;;;10.00;8.30;;;2.00;99.90;;;;;;5103423;28;20044;-77
2023/12/07 00:52:13;;;;;;;9.93;8.70;;;2.00;99.90;;;;;;5106153;28;20168;-77
2023/12/07 00:54:39;;;;;;;9.23;8.00;;;2.00;99.90;;;;;;5101995;28;20048;-77
2023/12/07 00:57:05;;;;;;;8.23;7.43;;;2.00;99.90;;;;;;5104430;28;20042;-78
2023/12/07 00:59:33;;;;;;;10.30;8.88;;;2.00;99.90;;;;;;5104462;28;20040;-77
2023/12/07 01:02:03;;;;;;;11.05;8.63;;;1.90;99.90;;;;;;5105483;28;20052;-76
2023/12/07 01:04:29;;;;;;;8.98;8.10;;;2.00;99.90;;;;;;5104392;28;20083;-77
2023/12/07 01:06:55;;;;;;;10.23;8.32;;;2.00;99.90;;;;;;5103283;28;20040;-77
2023/12/07 01:09:21;;;;;;;9.18;8.27;;;2.00;99.90;;;;;;5095480;28;20063;-77
2023/12/07 01:11:47;;;;;;;10.35;8.50;;;2.00;99.90;;;;;;5123411;27;20065;-78
2023/12/07 01:14:13;;;;;;;13.90;8.63;;;2.40;99.90;;;;;;5124402;28;20032;-77
2023/12/07 01:16:39;;;;;;;11.45;8.70;;;2.00;99.90;;;;;;5104376;28;20467;-78
2023/12/07 01:19:05;;;;;;;8.90;7.35;;;1.90;99.90;;;;;;5123014;28;20057;-79
2023/12/07 01:21:30;;;;;;;11.35;8.90;;;1.90;99.90;;;;;;5122643;28;20039;-78
2023/12/07 01:23:58;;;;;;;9.93;8.85;;;2.50;99.90;;;;;;5124047;28;20036;-76
2023/12/07 01:26:24;;;;;;;10.02;8.55;;;2.40;99.90;;;;;;5124878;28;20040;-76
2023/12/07 01:28:49;;;;;;;12.77;8.90;;;2.30;99.90;;;;;;5122522;28;20063;-76
2023/12/07 01:31:15;;;;;;;9.95;8.57;;;1.90;99.90;;;;;;5123237;28;20067;-77
2023/12/07 01:33:41;;;;;;;11.65;8.48;;;2.20;99.90;;;;;;5123007;28;20394;-77
2023/12/07 01:36:07;;;;;;;9.77;8.50;;;1.90;99.90;;;;;;5124661;28;20071;-77
2023/12/07 01:38:33;;;;;;;9.70;8.43;;;1.90;99.90;;;;;;5123587;28;20054;-77
2023/12/07 01:40:59;;;;;;;9.90;8.98;;;2.10;99.90;;;;;;5123289;28;20043;-78
2023/12/07 01:43:24;;;;;;;10.65;8.48;;;2.40;99.90;;;;;;5123230;28;20486;-77
2023/12/07 01:45:54;;;;;;;10.50;8.82;;;1.90;99.90;;;;;;5121526;28;20042;-78
2023/12/07 01:48:22;;;;;;;9.68;8.63;;;2.30;99.90;;;;;;5124273;28;20039;-77
2023/12/07 01:50:48;;;;;;;12.02;8.40;;;1.90;99.90;;;;;;5120993;28;20112;-78
2023/12/07 01:53:15;;;;;;;12.23;8.93;;;1.90;99.90;;;;;;5122301;28;20486;-77
2023/12/07 01:55:42;;;;;;;11.50;8.77;;;1.90;99.90;;;;;;5123442;28;20074;-76
2023/12/07 01:58:08;;;;;;;9.82;8.68;;;2.60;99.90;;;;;;5122209;28;20039;-76
2023/12/07 02:00:34;;;;;;;8.82;7.93;;;2.00;99.90;;;;;;5122261;28;20051;-77
2023/12/07 02:03:05;;;;;;;10.80;8.18;;;1.90;99.90;;;;;;5122605;28;20050;-76
2023/12/07 02:05:31;;;;;;;10.30;8.73;;;1.90;99.90;;;;;;5123876;28;20104;-77
2023/12/07 02:07:58;;;;;;;8.88;7.97;;;1.90;99.90;;;;;;5122683;28;20079;-76
2023/12/07 02:10:24;;;;;;;11.48;8.35;;;1.90;99.90;;;;;;5121574;28;20052;-78
2023/12/07 02:12:51;;;;;;;11.18;8.65;;;2.10;99.90;;;;;;5120746;28;20044;-78
2023/12/07 02:15:17;;;;;;;11.15;9.55;;;1.90;99.90;;;;;;5122515;28;20048;-77
2023/12/07 02:17:43;;;;;;;9.35;8.45;;;1.90;99.90;;;;;;5104628;28;20065;-77
2023/12/07 02:20:14;;;;;;;11.63;9.25;;;1.90;99.90;;;;;;5119551;28;20055;-77
2023/12/07 02:22:49;;;;;;;13.60;8.57;;;1.90;99.90;;;;;;5121540;28;20051;-77
2023/12/07 02:25:18;;;;;;;8.60;7.80;;;1.90;99.90;;;;;;5119889;28;20073;-78
2023/12/07 02:27:48;;;;;;;10.18;9.10;;;2.30;99.90;;;;;;5121780;28;20132;-79
2023/12/07 02:30:14;;;;;;;8.93;8.02;;;1.90;99.90;;;;;;5121300;28;20044;-79
2023/12/07 02:32:44;;;;;;;10.07;8.85;;;1.90;99.90;;;;;;5121196;28;20071;-78
2023/12/07 02:35:15;;;;;;;9.60;8.65;;;1.90;99.90;;;;;;5123274;28;20067;-77
2023/12/07 02:37:49;;;;;;;10.45;8.95;;;1.90;99.90;;;;;;5119689;28;20074;-78
2023/12/07 02:40:24;;;;;;;9.13;8.05;;;1.90;99.90;;;;;;5122942;28;20036;-77
2023/12/07 02:42:51;;;;;;;12.27;8.80;;;1.90;99.90;;;;;;5121674;28;20144;-79
2023/12/07 02:45:17;;;;;;;10.32;8.45;;;1.90;99.90;;;;;;5120392;28;20058;-78
2023/12/07 02:47:45;;;;;;;12.25;9.02;;;1.90;99.90;;;;;;5121581;28;20061;-77
2023/12/07 02:50:11;;;;;;;11.60;8.95;;;1.90;99.90;;;;;;5121058;28;20054;-76
2023/12/07 02:52:38;;;;;;;11.15;9.02;;;1.80;99.90;;;;;;5121435;28;20044;-79
2023/12/07 02:55:04;;;;;;;11.57;8.90;;;2.50;99.90;;;;;;5120381;28;20040;-78
2023/12/07 02:57:30;;;;;;;11.57;9.32;;;1.80;99.90;;;;;;5121290;28;20054;-78
2023/12/07 02:59:56;;;;;;;9.45;8.38;;;1.70;99.90;;;;;;5120773;28;20051;-77
2023/12/07 03:02:22;;;;;;;14.48;9.75;;;1.70;99.90;;;;;;5121050;28;20096;-78
2023/12/07 03:04:48;;;;;;;12.80;9.80;;;1.70;99.90;;;;;;5121058;28;20047;-77
2023/12/07 03:07:14;;;;;;;11.10;9.10;;;1.80;99.90;;;;;;5118780;28;20039;-79
2023/12/07 03:09:39;;;;;;;10.88;9.20;;;1.70;99.90;;;;;;5121743;28;20075;-76
2023/12/07 03:12:06;;;;;;;10.63;9.05;;;1.70;99.90;;;;;;5120456;28;20047;-77
2023/12/07 03:14:32;;;;;;;11.75;9.65;;;1.70;99.90;;;;;;5121385;28;20071;-77
2023/12/07 03:16:58;;;;;;;13.45;9.68;;;1.80;99.90;;;;;;5120681;28;20036;-78
2023/12/07 03:19:23;;;;;;;11.35;9.60;;;1.70;99.90;;;;;;5125792;28;20040;-78
2023/12/07 03:21:49;;;;;;;13.55;9.65;;;2.10;99.90;;;;;;5124594;28;20088;-78
2023/12/07 03:24:15;;;;;;;13.95;10.43;;;1.70;99.90;;;;;;5123177;28;20044;-77
2023/12/07 03:26:41;;;;;;;12.32;9.30;;;1.60;99.90;;;;;;5125033;28;20062;-78
2023/12/07 03:29:07;;;;;;;10.23;9.15;;;1.60;99.90;;;;;;5121816;28;20101;-78
2023/12/07 03:31:33;;;;;;;11.35;9.48;;;1.50;99.90;;;;;;5107827;28;20058;-77
2023/12/07 03:34:00;;;;;;;13.32;9.65;;;1.50;99.90;;;;;;5123140;28;20107;-76
2023/12/07 03:36:27;;;;;;;11.05;8.70;;;1.40;99.90;;;;;;5125936;28;20181;-78
2023/12/07 03:38:53;;;;;;;11.57;9.52;;;1.70;99.90;;;;;;5124067;28;20047;-76
2023/12/07 03:41:18;;;;;;;11.23;9.00;;;1.20;99.90;;;;;;5121824;28;20043;-77
2023/12/07 03:43:44;;;;;;;12.48;9.00;;;1.20;99.90;;;;;;5124145;28;20044;-78
2023/12/07 03:46:10;;;;;;;11.50;8.43;;;1.10;99.90;;;;;;5123131;28;20056;-78
2023/12/07 03:48:36;;;;;;;12.77;9.30;;;1.10;99.90;;;;;;5125584;28;20036;-78
2023/12/07 03:51:02;;;;;;;13.80;9.90;;;1.00;99.90;;;;;;5122342;28;20042;-77
2023/12/07 03:53:28;;;;;;;13.73;9.35;;;1.00;99.90;;;;;;5125436;28;20044;-78
2023/12/07 03:55:55;;;;;;;11.73;10.35;;;1.00;99.90;;;;;;5125056;27;20074;-78
2023/12/07 03:58:20;;;;;;;13.77;10.25;;;0.90;99.90;;;;;;5122469;28;20051;-81
2023/12/07 04:00:46;;;;;;;13.25;10.65;;;0.90;99.90;;;;;;5123761;28;20047;-79
2023/12/07 04:03:12;;;;;;;14.95;10.73;;;0.90;99.90;;;;;;5122232;28;20043;-79
2023/12/07 04:05:38;;;;;;;15.32;12.00;;;1.00;99.90;;;;;;5123889;28;20067;-79
2023/12/07 04:08:07;;;;;;;16.67;11.32;;;1.00;99.90;;;;;;5123038;28;20099;-78
2023/12/07 04:10:32;;;;;;;14.77;12.35;;;1.00;99.90;;;;;;5123651;28;20059;-78
2023/12/07 04:12:58;;;;;;;17.98;12.02;;;1.20;99.90;;;;;;5122587;28;20108;-79
2023/12/07 04:15:24;;;;;;;13.43;11.43;;;1.00;99.90;;;;;;5072353;28;20045;-78
2023/12/07 04:17:52;;;;;;;13.82;10.93;;;1.00;99.90;;;;;;5123688;28;20126;-77
2023/12/07 04:20:18;;;;;;;19.67;12.57;;;1.00;99.90;;;;;;5121809;28;20103;-77
2023/12/07 04:22:45;;;;;;;12.43;10.13;;;0.90;99.90;;;;;;5124979;28;20550;-78
2023/12/07 04:25:11;;;;;;;12.63;10.75;;;0.80;99.90;;;;;;5122302;28;20036;-77
2023/12/07 04:27:36;;;;;;;15.38;11.25;;;0.70;99.90;;;;;;5124584;28;20069;-78
2023/12/07 04:30:03;;;;;;;14.75;10.85;;;0.80;99.90;;;;;;5122012;28;20520;-79
2023/12/07 04:32:29;;;;;;;15.80;10.93;;;0.70;99.90;;;;;;5123540;28;20054;-79
2023/12/07 04:34:55;;;;;;;13.60;10.65;;;1.00;99.90;;;;;;5124409;28;20044;-79
2023/12/07 04:37:21;;;;;;;12.43;10.43;;;0.60;99.90;;;;;;5121204;28;20502;-79
2023/12/07 04:39:46;;;;;;;13.50;11.63;;;0.60;99.90;;;;;;5123524;28;20452;-78
2023/12/07 04:42:12;;;;;;;15.68;11.50;;;0.60;99.90;;;;;;5122535;28;20613;-81
2023/12/07 04:44:38;;;;;;;14.20;11.15;;;1.00;99.90;;;;;;5123601;28;20047;-78
2023/12/07 04:47:04;;;;;;;19.33;11.68;;;0.50;99.90;;;;;;5123522;28;20031;-79
2023/12/07 04:49:30;;;;;;;13.35;10.90;;;0.50;99.90;;;;;;5123591;28;20046;-81
2023/12/07 04:51:55;;;;;;;14.27;11.25;;;0.50;99.90;;;;;;5123023;28;20100;-80
2023/12/07 04:54:21;;;;;;;12.93;10.00;;;0.50;99.90;;;;;;5121301;28;20044;-81
2023/12/07 04:56:47;;;;;;;14.52;11.25;;;0.70;99.90;;;;;;5124509;28;20467;-80
2023/12/07 04:59:13;;;;;;;13.00;10.43;;;0.50;99.90;;;;;;5122090;28;20039;-81
2023/12/07 05:01:39;;;;;;;16.55;11.80;;;0.50;99.90;;;;;;5123893;28;20042;-80
2023/12/07 05:04:05;;;;;;;15.43;11.55;;;0.50;99.90;;;;;;5121225;28;20052;-80
2023/12/07 05:06:31;;;;;;;15.95;11.18;;;0.40;99.90;;;;;;5122219;28;20050;-79
2023/12/07 05:08:57;;;;;;;15.93;12.18;;;0.80;99.90;;;;;;5123284;28;20048;-79
2023/12/07 05:11:23;;;;;;;17.85;11.57;;;0.50;99.90;;;;;;5121013;28;20625;-80
2023/12/07 05:13:49;;;;;;;15.32;11.52;;;0.50;99.90;;;;;;5122852;28;20047;-80
2023/12/07 05:16:14;;;;;;;19.08;12.30;;;0.50;99.90;;;;;;5120319;28;20122;-81
2023/12/07 05:18:40;;;;;;;18.33;12.07;;;0.50;99.90;;;;;;5124101;28;20066;-81
2023/12/07 05:21:07;;;;;;;17.00;12.18;;;0.50;99.90;;;;;;5121925;28;20039;-80
2023/12/07 05:23:33;;;;;;;16.08;12.57;;;0.50;99.90;;;;;;5123662;28;20071;-78
2023/12/07 05:25:59;;;;;;;17.27;12.75;;;0.50;99.90;;;;;;5121797;28;20040;-79
2023/12/07 05:28:26;;;;;;;17.85;12.48;;;0.50;99.90;;;;;;5120649;28;20067;-80
2023/12/07 05:30:52;;;;;;;17.15;11.80;;;0.70;99.90;;;;;;5123581;28;20042;-80
2023/12/07 05:33:19;;;;;;;18.10;11.85;;;0.50;99.90;;;;;;5120405;28;20039;-81
2023/12/07 05:35:45;;;;;;;16.70;11.70;;;0.50;99.90;;;;;;5123862;28;20047;-81
2023/12/07 05:38:11;;;;;;;17.00;11.88;;;0.60;99.90;;;;;;5120185;28;20071;-81
2023/12/07 05:40:37;;;;;;;17.50;12.65;;;0.40;99.90;;;;;;5122036;28;20732;-82
2023/12/07 05:43:03;;;;;;;15.02;12.98;;;0.40;99.90;;;;;;5123231;28;20035;-82
2023/12/07 05:45:30;;;;;;;17.50;12.52;;;0.40;99.90;;;;;;5121950;28;20135;-82
2023/12/07 05:47:56;;;;;;;16.42;12.13;;;0.40;99.90;;;;;;5123417;28;20063;-82
2023/12/07 05:50:21;;;;;;;15.98;12.00;;;0.40;99.90;;;;;;5120965;28;20058;-82
2023/12/07 05:52:47;;;;;;;18.42;13.27;;;0.30;99.90;;;;;;5123345;28;20039;-82
2023/12/07 05:55:13;;;;;;;17.05;12.00;;;0.40;99.90;;;;;;5119682;28;20051;-81
2023/12/07 05:57:40;;;;;;;15.70;12.80;;;0.30;99.90;;;;;;5123448;28;20416;-82
2023/12/07 06:00:09;;;;;;;15.82;12.05;;;0.30;99.90;;;;;;5122271;28;20039;-80
2023/12/07 06:02:35;;;;;;;16.33;13.60;;;0.30;99.90;;;;;;5120671;28;20043;-80
2023/12/07 06:05:04;;;;;;;21.73;13.80;;;0.30;99.90;;;;;;5122142;28;20056;-80
2023/12/07 06:07:30;;;;;;;15.88;13.13;;;0.40;99.90;;;;;;5119580;28;20040;-81
2023/12/07 06:09:56;;;;;;;16.83;13.25;;;0.40;99.90;;;;;;5121559;28;20138;-81
2023/12/07 06:12:22;;;;;;;18.70;12.75;;;0.40;99.90;;;;;;5119833;28;20565;-80
2023/12/07 06:14:48;;;;;;;18.73;13.00;;;0.40;99.90;;;;;;5122832;28;20083;-81
2023/12/07 06:17:14;;;;;;;17.80;13.25;;;0.30;99.90;;;;;;5122090;28;20072;-81
2023/12/07 06:19:40;;;;;;;17.77;13.77;;;0.60;99.90;;;;;;5103081;28;20509;-81
2023/12/07 06:22:06;;;;;;;18.77;12.70;;;0.30;99.90;;;;;;5121511;28;20054;-81
2023/12/07 06:24:32;;;;;;;16.70;12.48;;;0.30;99.90;;;;;;5120502;28;20044;-80
2023/12/07 06:26:59;;;;;;;18.05;13.65;;;0.30;99.90;;;;;;5121863;28;20434;-80
2023/12/07 06:29:24;;;;;;;17.45;12.88;;;0.30;99.90;;;;;;5120569;28;20075;-80
2023/12/07 06:31:50;;;;;;;20.92;14.05;;;0.30;99.90;;;;;;5122933;28;20047;-80
2023/12/07 06:34:16;;;;;;;15.95;12.23;;;0.30;99.90;;;;;;5121965;28;20549;-81
2023/12/07 06:36:43;;;;;;;18.65;12.25;;;0.40;99.90;;;;;;5120307;28;20044;-80
2023/12/07 06:39:10;;;;;;;15.63;12.85;;;0.20;99.90;;;;;;5121505;28;20043;-79
2023/12/07 06:41:35;;;;;;;19.30;12.77;;;0.20;99.90;;;;;;5120884;28;20047;-80
2023/12/07 06:44:01;;;;;;;19.00;13.18;;;0.50;99.90;;;;;;5122924;28;20055;-80
2023/12/07 06:46:27;;;;;;;18.92;14.88;;;0.30;99.90;;;;;;5119104;28;20047;-80
2023/12/07 06:48:53;;;;;;;17.08;13.38;;;0.30;99.90;;;;;;5122780;28;20035;-80
2023/12/07 06:51:18;;;;;;;19.40;14.25;;;0.30;99.90;;;;;;5122245;28;20428;-80
2023/12/07 06:53:44;;;;;;;15.70;13.43;;;0.40;99.90;;;;;;5125877;28;20455;-81
2023/12/07 06:56:10;;;;;;;15.82;13.05;;;0.40;99.90;;;;;;5124630;28;20051;-80
2023/12/07 06:58:35;;;;;;;18.65;13.63;;;0.40;99.90;;;;;;5124889;28;20130;-80
2023/12/07 07:01:01;;;;;;;18.60;13.75;;;0.70;99.90;;;;;;5125024;28;20044;-80
2023/12/07 07:03:27;;;;;;;18.30;13.70;;;0.50;99.90;;;;;;5124652;28;20103;-80
2023/12/07 07:05:54;;;;;;;18.48;13.45;;;0.50;99.90;;;;;;5126714;28;20074;-79
2023/12/07 07:08:20;;;;;;;17.27;12.90;;;0.50;99.90;;;;;;5125145;28;20055;-80
2023/12/07 07:10:49;;;;;;;15.68;12.98;;;0.50;99.90;;;;;;5124451;28;20276;-81
2023/12/07 07:13:19;;;;;;;19.33;14.20;;;0.50;99.90;;;;;;5124737;28;20503;-80
2023/12/07 07:15:45;;;;;;;17.20;12.95;;;0.60;99.90;;;;;;5123575;28;20188;-82
2023/12/07 07:18:11;;;;;;;18.13;13.75;;;0.60;99.90;;;;;;5107684;28;20486;-79
2023/12/07 07:20:37;;;;;;;22.30;13.98;;;0.60;99.90;;;;;;5122751;28;20044;-81
2023/12/07 07:23:02;;;;;;;18.13;14.30;;;0.60;99.90;;;;;;5126154;28;20035;-81
2023/12/07 07:25:28;;;;;;;19.55;13.52;;;0.60;99.90;;;;;;5122882;28;20040;-80
2023/12/07 07:27:54;;;;;;;18.77;13.18;;;0.60;99.90;;;;;;5124332;28;20048;-80
2023/12/07 07:30:21;;;;;;;18.40;13.43;;;1.00;99.90;;;;;;5123514;28;20047;-80
2023/12/07 07:32:47;;;;;;;15.80;13.00;;;0.70;99.90;;;;;;5123098;28;20043;-82
2023/12/07 07:35:13;;;;;;;18.13;12.93;;;0.70;99.90;;;;;;5125311;28;20046;-82
2023/12/07 07:37:39;;;;;;;20.08;14.10;;;0.90;99.90;;;;;;5122118;28;20055;-80
2023/12/07 07:40:06;;;;;;;20.30;14.60;;;0.70;99.90;;;;;;5107501;28;20439;-81
2023/12/07 07:42:35;;;;;;;15.15;12.35;;;0.60;99.90;;;;;;5122846;28;20146;-81
2023/12/07 07:45:01;;;;;;;18.83;13.43;;;0.60;99.90;;;;;;5123838;28;20513;-81
2023/12/07 07:47:26;;;;;;;19.00;12.52;;;0.70;99.90;;;;;;5124287;28;20066;-80
2023/12/07 07:49:52;;;;;;;20.75;13.43;;;0.50;99.90;;;;;;5123914;27;20400;-81
2023/12/07 07:52:19;;;;;;;18.98;13.15;;;0.50;99.90;;;;;;5125721;28;20044;-80
2023/12/07 07:54:44;;;;;;;16.27;13.20;;;0.50;99.90;;;;;;5123525;28;20122;-80
2023/12/07 07:57:10;;;;;;;19.20;13.85;;;-0.10;99.90;;;;;;5123954;28;20039;-80
2023/12/07 07:59:36;;;;;;;18.38;13.82;;;0.50;99.90;;;;;;5123236;28;20035;-81
2023/12/07 08:02:02;;;;;;;17.85;13.35;;;0.60;99.90;;;;;;5123268;28;20051;-80
2023/12/07 08:04:28;;;;;;;19.17;13.68;;;0.60;99.90;;;;;;5124663;28;20533;-79
2023/12/07 08:06:53;;;;;;;16.83;13.23;;;0.60;99.90;;;;;;5123898;28;20047;-81
2023/12/07 08:09:19;;;;;;;20.27;14.13;;;0.60;99.90;;;;;;5125273;28;20091;-81
2023/12/07 08:11:45;;;;;;;20.17;14.77;;;0.70;99.90;;;;;;5122700;28;20051;-80
2023/12/07 08:14:11;;;;;;;22.10;14.98;;;0.70;99.90;;;;;;5106651;28;20054;-81
2023/12/07 08:16:36;;;;;;;20.20;15.20;;;1.10;99.90;;;;;;5122856;28;20051;-81
2023/12/07 08:19:02;;;;;;;22.67;14.93;;;0.80;99.90;;;;;;5121161;28;20043;-80
2023/12/07 08:21:29;;;;;;;17.65;14.65;;;0.90;99.90;;;;;;5121345;27;20346;-80
2023/12/07 08:23:55;;;;;;;20.92;15.27;;;1.20;99.90;;;;;;5120481;28;20097;-81
2023/12/07 08:26:21;;;;;;;19.67;15.48;;;1.70;99.90;;;;;;5120818;27;20035;-82
2023/12/07 08:28:47;;;;;;;21.95;14.90;;;0.90;99.90;;;;;;5118964;28;20051;-80
2023/12/07 08:31:13;;;;;;;18.02;14.52;;;1.00;99.90;;;;;;5123141;28;20035;-82
2023/12/07 08:33:39;;;;;;;21.00;15.82;;;1.00;99.90;;;;;;5118602;28;20050;-81
2023/12/07 08:36:06;;;;;;;20.75;15.55;;;1.00;99.90;;;;;;5123319;28;20043;-83
2023/12/07 08:38:32;;;;;;;25.20;15.88;;;1.00;99.90;;;;;;5121933;28;20046;-81
2023/12/07 08:40:58;;;;;;;21.10;15.13;;;1.30;99.90;;;;;;5122748;28;20449;-82
2023/12/07 08:43:24;;;;;;;22.27;15.25;;;1.10;99.90;;;;;;5122304;28;20490;-82
2023/12/07 08:45:52;;;;;;;20.73;15.13;;;1.10;99.90;;;;;;5119875;28;20075;-82
2023/12/07 08:48:19;;;;;;;19.35;14.25;;;1.10;99.90;;;;;;5104343;28;20088;-84
2023/12/07 08:50:45;;;;;;;23.08;14.88;;;1.40;99.90;;;;;;5119916;28;20036;-81
2023/12/07 08:53:11;;;;;;;22.80;15.55;;;1.60;99.90;;;;;;5104054;28;20050;-82
2023/12/07 08:55:36;;;;;;;25.42;15.93;;;1.20;99.90;;;;;;5120953;28;20063;-82
2023/12/07 08:58:04;;;;;;;24.77;16.90;;;1.80;99.90;;;;;;5121857;28;20042;-81
2023/12/07 09:00:32;;;;;;;22.00;15.90;;;1.30;99.90;;;;;;5121846;28;20061;-81
2023/12/07 09:02:58;;;;;;;22.48;16.75;;;1.30;99.90;;;;;;5119675;28;20044;-81
2023/12/07 09:05:23;;;;;;;22.00;16.55;;;1.40;99.90;;;;;;5122046;28;20072;-86
2023/12/07 09:07:49;;;;;;;24.50;16.17;;;1.40;99.90;;;;;;5119924;28;20088;-81
2023/12/07 09:10:15;;;;;;;21.20;16.05;;;1.50;99.90;;;;;;5103291;28;20427;-82
2023/12/07 09:12:40;;;;;;;20.40;14.68;;;1.50;99.90;;;;;;5120185;28;20055;-82
2023/12/07 09:15:07;;;;;;;22.67;15.80;;;1.50;99.90;;;;;;5119984;28;20151;-81
2023/12/07 09:17:33;;;;;;;21.10;15.65;;;1.50;99.90;;;;;;5122442;28;20078;-79
2023/12/07 09:19:59;;;;;;;23.08;15.85;;;1.60;99.90;;;;;;5102682;28;20040;-82
2023/12/07 09:22:25;;;;;;;22.95;15.95;;;1.50;99.90;;;;;;5121230;28;20103;-79
2023/12/07 09:24:51;;;;;;;23.17;16.02;;;1.50;99.90;;;;;;5118917;28;20039;-79
2023/12/07 09:27:16;;;;;;;24.77;15.63;;;1.60;99.90;;;;;;5122457;28;20563;-79
2023/12/07 09:29:42;;;;;;;20.55;14.43;;;1.40;99.90;;;;;;5102411;28;20052;-79
2023/12/07 09:32:08;;;;;;;19.55;15.00;;;1.60;99.90;;;;;;5121984;28;20046;-81
2023/12/07 09:34:34;;;;;;;20.58;15.20;;;1.30;99.90;;;;;;5119693;28;20052;-79
2023/12/07 09:37:09;;;;;;;22.60;15.45;;;1.40;99.90;;;;;;5085935;28;20086;-80
2023/12/07 09:39:36;;;;;;;21.23;14.83;;;1.50;99.90;;;;;;5103681;28;20039;-81
2023/12/07 09:42:04;;;;;;;22.77;16.08;;;1.50;99.90;;;;;;5101885;28;20339;-79
2023/12/07 09:44:30;;;;;;;19.83;14.63;;;1.50;99.90;;;;;;5086841;28;20058;-77
2023/12/07 09:46:55;;;;;;;20.20;14.35;;;1.40;99.90;;;;;;5118421;28;20495;-81
2023/12/07 09:49:22;;;;;;;22.02;12.90;;;1.30;99.90;;;;;;5102748;28;20047;-80
2023/12/07 09:51:49;;;;;;;21.75;15.20;;;1.20;99.90;;;;;;5120325;28;20039;-77
2023/12/07 09:54:15;;;;;;;25.60;15.68;;;1.10;99.90;;;;;;5118670;28;20055;-79
2023/12/07 09:56:41;;;;;;;26.92;15.23;;;0.90;99.90;;;;;;5087283;28;20063;-79
2023/12/07 09:59:07;;;;;;;29.75;15.48;;;0.70;99.90;;;;;;5084443;28;20047;-79
2023/12/07 10:01:36;;;;;;;36.97;16.40;;;0.70;99.90;;;;;;5121367;28;20210;-80
2023/12/07 10:04:23;;;;;;;24.67;16.48;;;0.50;99.90;;;;;;5118302;28;20035;-80
2023/12/07 10:06:50;;;;;;;24.17;14.75;;;0.50;99.90;;;;;;5120322;28;20067;-81
2023/12/07 10:09:18;;;;;;;46.67;16.33;;;0.50;99.90;;;;;;5103502;28;20075;-81
2023/12/07 10:11:44;;;;;;;49.33;17.75;;;0.40;99.90;;;;;;5118119;28;20104;-81
2023/12/07 10:14:10;;;;;;;41.30;16.60;;;0.50;99.90;;;;;;5103513;28;20126;-82
2023/12/07 10:16:37;;;;;;;51.83;20.40;;;0.50;99.90;;;;;;5101507;28;20040;-80
2023/12/07 10:19:19;;;;;;;62.95;20.85;;;0.50;99.90;;;;;;5121512;28;20046;-81
2023/12/07 10:21:45;;;;;;;85.20;19.50;;;0.60;99.90;;;;;;5087190;28;20049;-81
2023/12/07 10:24:11;;;;;;;64.60;18.80;;;0.60;99.90;;;;;;5118015;28;20044;-81
2023/12/07 10:26:38;;;;;;;49.33;18.60;;;0.60;99.90;;;;;;5124903;28;20525;-82
2023/12/07 10:29:07;;;;;;;25.45;16.55;;;0.70;99.90;;;;;;5105516;28;20055;-79
2023/12/07 10:31:33;;;;;;;37.17;17.08;;;0.80;99.90;;;;;;5124457;28;20071;-79
2023/12/07 10:34:00;;;;;;;31.67;16.38;;;1.10;99.90;;;;;;5122778;28;20031;-79
2023/12/07 10:36:26;;;;;;;35.17;16.23;;;0.90;99.90;;;;;;5123892;28;20044;-81
2023/12/07 10:38:53;;;;;;;26.27;16.65;;;0.90;99.90;;;;;;5124147;28;20039;-80
2023/12/07 10:41:20;;;;;;;25.88;14.38;;;1.00;99.90;;;;;;5123840;28;20051;-81
2023/12/07 10:43:51;;;;;;;46.28;15.90;;;1.00;99.90;;;;;;5115623;28;20039;-81
2023/12/07 10:46:20;;;;;;;27.15;15.23;;;1.00;99.90;;;;;;5104521;28;20522;-81
2023/12/07 10:48:48;;;;;;;30.70;13.00;;;1.00;99.90;;;;;;5123447;28;20063;-80
2023/12/07 10:51:31;;;;;;;28.80;13.95;;;1.00;99.90;;;;;;5123988;28;20051;-83
2023/12/07 10:53:58;;;;;;;40.30;15.40;;;0.90;99.90;;;;;;5122695;28;20047;-80
2023/12/07 10:56:32;;;;;;;20.08;14.18;;;0.90;99.90;;;;;;5121608;28;20043;-81
2023/12/07 10:58:59;;;;;;;26.42;14.57;;;1.00;99.90;;;;;;5118506;28;20077;-80
2023/12/07 11:01:25;;;;;;;25.48;15.52;;;1.00;99.90;;;;;;5113776;28;20122;-80
2023/12/07 11:03:52;;;;;;;20.23;14.65;;;1.00;99.90;;;;;;5122238;28;20522;-80
2023/12/07 11:06:19;;;;;;;26.70;13.57;;;1.10;99.90;;;;;;5123605;28;20044;-81
2023/12/07 11:08:50;;;;;;;24.83;14.13;;;1.10;99.90;;;;;;5107040;28;20387;-79
2023/12/07 11:11:22;;;;;;;17.98;13.52;;;1.10;99.90;;;;;;5123409;28;20502;-80
2023/12/07 11:14:00;;;;;;;29.42;14.00;;;1.10;99.90;;;;;;5124182;28;20046;-82
2023/12/07 11:16:35;;;;;;;20.13;13.32;;;1.20;99.90;;;;;;5122625;28;20641;-83
2023/12/07 11:19:01;;;;;;;26.02;14.00;;;1.10;99.90;;;;;;5106393;28;20078;-81
2023/12/07 11:21:27;;;;;;;24.60;14.65;;;1.10;99.90;;;;;;5103105;28;20566;-81
2023/12/07 11:23:54;;;;;;;29.00;14.70;;;1.00;99.90;;;;;;5109184;28;20454;-81
2023/12/07 11:26:24;;;;;;;21.55;14.55;;;1.00;99.90;;;;;;5125658;28;20044;-81
2023/12/07 11:28:50;;;;;;;27.75;15.00;;;1.10;99.90;;;;;;5105722;28;20075;-81
2023/12/07 11:31:16;;;;;;;59.67;17.17;;;1.10;99.90;;;;;;5123864;28;20035;-81
2023/12/07 11:33:42;;;;;;;33.45;16.10;;;1.10;99.90;;;;;;5123313;28;20473;-81
2023/12/07 11:36:12;;;;;;;40.10;15.82;;;1.10;99.90;;;;;;5122877;28;20040;-85
2023/12/07 11:38:38;;;;;;;31.92;16.20;;;1.10;99.90;;;;;;5123756;28;20043;-81
2023/12/07 11:41:05;;;;;;;42.90;16.80;;;1.10;99.90;;;;;;5101232;28;20082;-81
2023/12/07 11:43:35;;;;;;;39.03;15.45;;;1.10;99.90;;;;;;5122755;28;20495;-81
2023/12/07 11:46:01;;;;;;;40.05;15.75;;;1.10;99.90;;;;;;5123175;28;20051;-82
2023/12/07 11:48:27;;;;;;;28.45;16.08;;;1.10;99.90;;;;;;5105949;28;20044;-83
2023/12/07 11:50:58;;;;;;;32.22;16.65;;;1.10;99.90;;;;;;5123134;28;20040;-82
2023/12/07 11:53:24;;;;;;;37.65;16.55;;;1.00;99.90;;;;;;5125001;28;20046;-84
2023/12/07 11:55:51;;;;;;;52.15;17.25;;;1.00;99.90;;;;;;5123337;28;20043;-83
2023/12/07 11:58:17;;;;;;;34.90;17.15;;;1.00;99.90;;;;;;5121320;28;20051;-85
2023/12/07 12:00:46;;;;;;;36.40;18.23;;;1.10;99.90;;;;;;5121263;28;20055;-81
2023/12/07 12:03:13;;;;;;;37.03;17.48;;;1.10;99.90;;;;;;5122726;28;20040;-83
2023/12/07 12:05:40;;;;;;;42.58;18.65;;;1.30;99.90;;;;;;5123748;28;20044;-83
2023/12/07 12:08:06;;;;;;;45.47;18.15;;;1.10;99.90;;;;;;5121695;28;20039;-81
2023/12/07 12:10:32;;;;;;;33.85;17.45;;;1.10;99.90;;;;;;5122795;28;20473;-84
2023/12/07 12:13:03;;;;;;;27.52;16.42;;;1.20;99.90;;;;;;5122256;28;20047;-83
2023/12/07 12:15:29;;;;;;;45.95;19.90;;;1.20;99.90;;;;;;5123050;28;20043;-84
2023/12/07 12:17:59;;;;;;;42.45;18.27;;;1.20;99.90;;;;;;5124620;28;20063;-83
2023/12/07 12:20:28;;;;;;;29.08;17.67;;;1.40;99.90;;;;;;5121446;28;20044;-82
2023/12/07 12:22:54;;;;;;;38.78;20.17;;;1.30;99.90;;;;;;5124751;28;20046;-81
2023/12/07 12:25:31;;;;;;;37.42;19.65;;;1.60;99.90;;;;;;5122253;28;20063;-81
2023/12/07 12:28:04;;;;;;;37.63;19.23;;;1.30;99.90;;;;;;5122401;28;20080;-81
2023/12/07 12:30:31;;;;;;;32.05;19.30;;;1.30;99.90;;;;;;5123009;28;20058;-83
2023/12/07 12:32:57;;;;;;;44.90;19.55;;;1.40;99.90;;;;;;5103881;28;20047;-82
2023/12/07 12:35:24;;;;;;;45.05;20.65;;;1.40;99.90;;;;;;5123422;28;20069;-82
2023/12/07 12:37:50;;;;;;;34.30;19.42;;;1.40;99.90;;;;;;5121952;28;20040;-83